sensor_id;sensor_type;location;lat;lon;timestamp;temperature;humidity
71304;DHT22;59091;47.446;19.148;2023-05-20T00:00:49;17.54;75.96
71304;DHT22;59091;47.446;19.148;2023-05-20T00:03:17;17.53;75.90
71304;DHT22;59091;47.446;19.148;2023-05-20T00:05:45;17.62;75.63
71304;DHT22;59091;47.446;19.148;2023-05-20T00:08:10;17.57;75.85
71304;DHT22;59091;47.446;19.148;2023-05-20T00:10:36;17.50;76.19
71304;DHT22;59091;47.446;19.148;2023-05-20T00:13:02;17.51;76.12
71304;DHT22;59091;47.446;19.148;2023-05-20T00:15:27;17.46;76.21
71304;DHT22;59091;47.446;19.148;2023-05-20T00:17:53;17.43;76.51
71304;DHT22;59091;47.446;19.148;2023-05-20T00:20:19;17.40;76.77
71304;DHT22;59091;47.446;19.148;2023-05-20T00:22:45;17.40;76.78
71304;DHT22;59091;47.446;19.148;2023-05-20T00:25:10;17.37;76.89
71304;DHT22;59091;47.446;19.148;2023-05-20T00:27:39;17.47;76.53
71304;DHT22;59091;47.446;19.148;2023-05-20T00:30:04;17.46;76.43
71304;DHT22;59091;47.446;19.148;2023-05-20T00:32:30;17.47;76.46
71304;DHT22;59091;47.446;19.148;2023-05-20T00:34:56;17.46;76.44
71304;DHT22;59091;47.446;19.148;2023-05-20T00:37:23;17.43;76.58
71304;DHT22;59091;47.446;19.148;2023-05-20T00:39:48;17.43;76.45
71304;DHT22;59091;47.446;19.148;2023-05-20T00:42:21;17.37;76.49
71304;DHT22;59091;47.446;19.148;2023-05-20T00:44:46;17.35;76.77
71304;DHT22;59091;47.446;19.148;2023-05-20T00:47:12;17.33;76.89
71304;DHT22;59091;47.446;19.148;2023-05-20T00:49:38;17.33;76.73
71304;DHT22;59091;47.446;19.148;2023-05-20T00:52:04;17.33;76.56
71304;DHT22;59091;47.446;19.148;2023-05-20T00:54:30;17.35;76.55
71304;DHT22;59091;47.446;19.148;2023-05-20T00:56:56;17.30;76.46
71304;DHT22;59091;47.446;19.148;2023-05-20T00:59:22;17.27;76.41
71304;DHT22;59091;47.446;19.148;2023-05-20T01:01:48;17.25;76.36
71304;DHT22;59091;47.446;19.148;2023-05-20T01:04:13;17.20;76.29
71304;DHT22;59091;47.446;19.148;2023-05-20T01:06:39;17.16;76.24
71304;DHT22;59091;47.446;19.148;2023-05-20T01:09:05;17.12;76.34
71304;DHT22;59091;47.446;19.148;2023-05-20T01:11:37;17.04;76.31
71304;DHT22;59091;47.446;19.148;2023-05-20T01:14:07;17.04;76.52
71304;DHT22;59091;47.446;19.148;2023-05-20T01:16:34;16.99;76.67
71304;DHT22;59091;47.446;19.148;2023-05-20T01:19:01;16.91;76.87
71304;DHT22;59091;47.446;19.148;2023-05-20T01:21:29;16.88;77.02
71304;DHT22;59091;47.446;19.148;2023-05-20T01:23:55;16.86;77.37
71304;DHT22;59091;47.446;19.148;2023-05-20T01:26:21;16.78;77.81
71304;DHT22;59091;47.446;19.148;2023-05-20T01:28:51;16.78;78.39
71304;DHT22;59091;47.446;19.148;2023-05-20T01:31:31;16.69;78.57
71304;DHT22;59091;47.446;19.148;2023-05-20T01:33:58;16.72;78.58
71304;DHT22;59091;47.446;19.148;2023-05-20T01:36:25;16.75;78.63
71304;DHT22;59091;47.446;19.148;2023-05-20T01:38:52;16.75;78.46
71304;DHT22;59091;47.446;19.148;2023-05-20T01:41:19;16.74;78.66
71304;DHT22;59091;47.446;19.148;2023-05-20T01:43:45;16.74;78.34
71304;DHT22;59091;47.446;19.148;2023-05-20T01:46:10;16.72;78.25
71304;DHT22;59091;47.446;19.148;2023-05-20T01:48:36;16.68;78.23
71304;DHT22;59091;47.446;19.148;2023-05-20T01:51:02;16.67;78.39
71304;DHT22;59091;47.446;19.148;2023-05-20T01:53:28;16.61;78.92
71304;DHT22;59091;47.446;19.148;2023-05-20T01:55:53;16.45;80.30
71304;DHT22;59091;47.446;19.148;2023-05-20T01:58:19;16.50;80.33
71304;DHT22;59091;47.446;19.148;2023-05-20T02:00:44;16.48;80.40
71304;DHT22;59091;47.446;19.148;2023-05-20T02:03:10;16.48;80.49
71304;DHT22;59091;47.446;19.148;2023-05-20T02:05:35;16.51;80.38
71304;DHT22;59091;47.446;19.148;2023-05-20T02:08:01;16.54;80.22
71304;DHT22;59091;47.446;19.148;2023-05-20T02:10:26;16.57;79.98
71304;DHT22;59091;47.446;19.148;2023-05-20T02:12:51;16.55;79.87
71304;DHT22;59091;47.446;19.148;2023-05-20T02:15:17;16.57;79.95
71304;DHT22;59091;47.446;19.148;2023-05-20T02:17:42;16.55;79.84
71304;DHT22;59091;47.446;19.148;2023-05-20T02:20:08;16.57;79.56
71304;DHT22;59091;47.446;19.148;2023-05-20T02:22:34;16.55;79.47
71304;DHT22;59091;47.446;19.148;2023-05-20T02:25:00;16.55;79.39
71304;DHT22;59091;47.446;19.148;2023-05-20T02:27:25;16.53;79.54
71304;DHT22;59091;47.446;19.148;2023-05-20T02:29:51;16.51;79.52
71304;DHT22;59091;47.446;19.148;2023-05-20T02:32:16;16.51;79.45
71304;DHT22;59091;47.446;19.148;2023-05-20T02:34:41;16.51;79.54
71304;DHT22;59091;47.446;19.148;2023-05-20T02:37:07;16.35;80.32
71304;DHT22;59091;47.446;19.148;2023-05-20T02:39:32;16.38;80.07
71304;DHT22;59091;47.446;19.148;2023-05-20T02:41:58;16.40;79.89
71304;DHT22;59091;47.446;19.148;2023-05-20T02:44:23;16.37;79.80
71304;DHT22;59091;47.446;19.148;2023-05-20T02:46:48;16.38;79.54
71304;DHT22;59091;47.446;19.148;2023-05-20T02:49:14;16.34;79.76
71304;DHT22;59091;47.446;19.148;2023-05-20T02:51:39;16.33;79.71
71304;DHT22;59091;47.446;19.148;2023-05-20T02:54:05;16.28;79.43
71304;DHT22;59091;47.446;19.148;2023-05-20T02:56:30;16.27;79.33
71304;DHT22;59091;47.446;19.148;2023-05-20T02:58:56;16.24;79.29
71304;DHT22;59091;47.446;19.148;2023-05-20T03:01:21;16.23;79.16
71304;DHT22;59091;47.446;19.148;2023-05-20T03:03:47;16.20;79.19
71304;DHT22;59091;47.446;19.148;2023-05-20T03:06:13;16.18;79.16
71304;DHT22;59091;47.446;19.148;2023-05-20T03:08:38;16.10;79.40
71304;DHT22;59091;47.446;19.148;2023-05-20T03:11:04;15.99;79.31
71304;DHT22;59091;47.446;19.148;2023-05-20T03:13:30;15.92;79.38
71304;DHT22;59091;47.446;19.148;2023-05-20T03:15:55;15.82;79.63
71304;DHT22;59091;47.446;19.148;2023-05-20T03:18:21;15.82;79.58
71304;DHT22;59091;47.446;19.148;2023-05-20T03:20:46;15.85;79.56
71304;DHT22;59091;47.446;19.148;2023-05-20T03:23:12;15.86;79.17
71304;DHT22;59091;47.446;19.148;2023-05-20T03:25:38;15.89;78.97
71304;DHT22;59091;47.446;19.148;2023-05-20T03:28:04;15.85;79.16
71304;DHT22;59091;47.446;19.148;2023-05-20T03:30:31;15.99;78.88
71304;DHT22;59091;47.446;19.148;2023-05-20T03:32:57;15.96;78.96
71304;DHT22;59091;47.446;19.148;2023-05-20T03:35:23;16.04;78.59
71304;DHT22;59091;47.446;19.148;2023-05-20T03:37:49;16.06;78.46
71304;DHT22;59091;47.446;19.148;2023-05-20T03:40:16;16.16;78.17
71304;DHT22;59091;47.446;19.148;2023-05-20T03:42:41;16.09;78.25
71304;DHT22;59091;47.446;19.148;2023-05-20T03:45:07;16.10;78.06
71304;DHT22;59091;47.446;19.148;2023-05-20T03:47:33;16.14;77.54
71304;DHT22;59091;47.446;19.148;2023-05-20T03:49:58;16.18;77.50
71304;DHT22;59091;47.446;19.148;2023-05-20T03:52:23;16.09;77.46
71304;DHT22;59091;47.446;19.148;2023-05-20T03:54:49;16.14;77.49
71304;DHT22;59091;47.446;19.148;2023-05-20T03:57:14;16.20;77.07
71304;DHT22;59091;47.446;19.148;2023-05-20T03:59:40;16.14;77.16
71304;DHT22;59091;47.446;19.148;2023-05-20T04:02:06;16.28;76.68
71304;DHT22;59091;47.446;19.148;2023-05-20T04:04:32;16.33;76.41
71304;DHT22;59091;47.446;19.148;2023-05-20T04:06:58;16.34;76.01
71304;DHT22;59091;47.446;19.148;2023-05-20T04:09:27;16.53;75.75
71304;DHT22;59091;47.446;19.148;2023-05-20T04:11:52;16.51;75.46
71304;DHT22;59091;47.446;19.148;2023-05-20T04:14:18;16.58;75.22
71304;DHT22;59091;47.446;19.148;2023-05-20T04:16:44;16.72;74.63
71304;DHT22;59091;47.446;19.148;2023-05-20T04:19:10;16.72;74.28
71304;DHT22;59091;47.446;19.148;2023-05-20T04:21:36;16.89;73.96
71304;DHT22;59091;47.446;19.148;2023-05-20T04:24:01;16.98;73.99
71304;DHT22;59091;47.446;19.148;2023-05-20T04:26:27;17.09;73.67
71304;DHT22;59091;47.446;19.148;2023-05-20T04:28:53;17.15;73.60
71304;DHT22;59091;47.446;19.148;2023-05-20T04:31:19;17.25;73.57
71304;DHT22;59091;47.446;19.148;2023-05-20T04:33:53;17.27;73.28
71304;DHT22;59091;47.446;19.148;2023-05-20T04:36:19;17.40;72.80
71304;DHT22;59091;47.446;19.148;2023-05-20T04:38:44;17.36;72.18
71304;DHT22;59091;47.446;19.148;2023-05-20T04:41:11;17.36;71.87
71304;DHT22;59091;47.446;19.148;2023-05-20T04:43:36;17.57;71.84
71304;DHT22;59091;47.446;19.148;2023-05-20T04:46:04;17.69;71.19
71304;DHT22;59091;47.446;19.148;2023-05-20T04:48:33;17.74;70.83
71304;DHT22;59091;47.446;19.148;2023-05-20T04:50:58;17.78;70.28
71304;DHT22;59091;47.446;19.148;2023-05-20T04:53:24;17.91;69.95
71304;DHT22;59091;47.446;19.148;2023-05-20T04:55:53;17.87;69.56
71304;DHT22;59091;47.446;19.148;2023-05-20T04:58:19;18.01;69.50
71304;DHT22;59091;47.446;19.148;2023-05-20T05:00:49;18.08;69.35
71304;DHT22;59091;47.446;19.148;2023-05-20T05:03:14;18.14;67.97
71304;DHT22;59091;47.446;19.148;2023-05-20T05:05:40;18.25;67.41
71304;DHT22;59091;47.446;19.148;2023-05-20T05:08:07;18.25;66.47
71304;DHT22;59091;47.446;19.148;2023-05-20T05:10:33;18.41;65.53
71304;DHT22;59091;47.446;19.148;2023-05-20T05:12:59;18.55;65.70
71304;DHT22;59091;47.446;19.148;2023-05-20T05:15:24;18.65;65.27
71304;DHT22;59091;47.446;19.148;2023-05-20T05:17:50;18.86;64.41
71304;DHT22;59091;47.446;19.148;2023-05-20T05:20:16;19.02;63.33
71304;DHT22;59091;47.446;19.148;2023-05-20T05:22:41;19.04;63.89
71304;DHT22;59091;47.446;19.148;2023-05-20T05:25:07;19.32;62.75
71304;DHT22;59091;47.446;19.148;2023-05-20T05:27:33;19.37;62.03
71304;DHT22;59091;47.446;19.148;2023-05-20T05:30:03;19.46;63.35
71304;DHT22;59091;47.446;19.148;2023-05-20T05:32:28;19.55;61.47
71304;DHT22;59091;47.446;19.148;2023-05-20T05:34:54;19.59;60.87
71304;DHT22;59091;47.446;19.148;2023-05-20T05:37:20;19.71;60.77
71304;DHT22;59091;47.446;19.148;2023-05-20T05:39:45;19.81;61.64
71304;DHT22;59091;47.446;19.148;2023-05-20T05:42:11;19.92;61.15
71304;DHT22;59091;47.446;19.148;2023-05-20T05:44:36;19.93;59.41
71304;DHT22;59091;47.446;19.148;2023-05-20T05:47:02;20.10;60.33
71304;DHT22;59091;47.446;19.148;2023-05-20T05:49:27;20.40;58.54
71304;DHT22;59091;47.446;19.148;2023-05-20T05:51:52;20.50;60.58
71304;DHT22;59091;47.446;19.148;2023-05-20T05:54:18;20.70;57.75
71304;DHT22;59091;47.446;19.148;2023-05-20T05:56:45;20.79;57.63
71304;DHT22;59091;47.446;19.148;2023-05-20T05:59:10;20.79;56.53
71304;DHT22;59091;47.446;19.148;2023-05-20T06:01:36;21.04;56.70
71304;DHT22;59091;47.446;19.148;2023-05-20T06:04:02;20.92;56.49
71304;DHT22;59091;47.446;19.148;2023-05-20T06:06:27;21.18;56.13
71304;DHT22;59091;47.446;19.148;2023-05-20T06:08:53;21.28;55.99
71304;DHT22;59091;47.446;19.148;2023-05-20T06:11:18;21.35;55.30
71304;DHT22;59091;47.446;19.148;2023-05-20T06:13:45;21.18;55.81
71304;DHT22;59091;47.446;19.148;2023-05-20T06:16:10;21.10;55.67
71304;DHT22;59091;47.446;19.148;2023-05-20T06:18:35;21.42;56.52
71304;DHT22;59091;47.446;19.148;2023-05-20T06:21:01;21.65;56.32
71304;DHT22;59091;47.446;19.148;2023-05-20T06:23:27;21.78;55.09
71304;DHT22;59091;47.446;19.148;2023-05-20T06:25:56;22.00;54.46
71304;DHT22;59091;47.446;19.148;2023-05-20T06:28:24;21.86;53.52
71304;DHT22;59091;47.446;19.148;2023-05-20T06:30:50;21.90;53.70
71304;DHT22;59091;47.446;19.148;2023-05-20T06:33:17;22.13;54.01
71304;DHT22;59091;47.446;19.148;2023-05-20T06:35:43;22.50;53.78
71304;DHT22;59091;47.446;19.148;2023-05-20T06:38:09;22.27;53.11
71304;DHT22;59091;47.446;19.148;2023-05-20T06:40:34;22.45;53.04
71304;DHT22;59091;47.446;19.148;2023-05-20T06:43:00;22.87;52.31
71304;DHT22;59091;47.446;19.148;2023-05-20T06:45:25;22.85;51.83
71304;DHT22;59091;47.446;19.148;2023-05-20T06:47:51;22.95;51.75
71304;DHT22;59091;47.446;19.148;2023-05-20T06:50:18;22.98;51.04
71304;DHT22;59091;47.446;19.148;2023-05-20T06:52:44;23.11;52.05
71304;DHT22;59091;47.446;19.148;2023-05-20T06:55:09;23.11;51.78
71304;DHT22;59091;47.446;19.148;2023-05-20T06:57:35;23.06;51.93
71304;DHT22;59091;47.446;19.148;2023-05-20T07:00:04;23.42;52.19
71304;DHT22;59091;47.446;19.148;2023-05-20T07:02:32;23.70;50.75
71304;DHT22;59091;47.446;19.148;2023-05-20T07:04:57;23.77;49.95
71304;DHT22;59091;47.446;19.148;2023-05-20T07:07:23;23.59;49.77
71304;DHT22;59091;47.446;19.148;2023-05-20T07:09:48;23.64;50.06
71304;DHT22;59091;47.446;19.148;2023-05-20T07:12:14;23.94;49.52
71304;DHT22;59091;47.446;19.148;2023-05-20T07:14:40;23.70;49.74
71304;DHT22;59091;47.446;19.148;2023-05-20T07:17:05;24.08;49.06
71304;DHT22;59091;47.446;19.148;2023-05-20T07:19:31;24.20;50.10
71304;DHT22;59091;47.446;19.148;2023-05-20T07:21:56;24.48;48.61
71304;DHT22;59091;47.446;19.148;2023-05-20T07:24:21;24.52;47.50
71304;DHT22;59091;47.446;19.148;2023-05-20T07:26:47;24.36;48.15
71304;DHT22;59091;47.446;19.148;2023-05-20T07:29:12;24.71;47.82
71304;DHT22;59091;47.446;19.148;2023-05-20T07:31:38;24.75;47.81
71304;DHT22;59091;47.446;19.148;2023-05-20T07:34:03;24.97;46.56
71304;DHT22;59091;47.446;19.148;2023-05-20T07:36:29;25.33;46.27
71304;DHT22;59091;47.446;19.148;2023-05-20T07:38:55;25.28;46.37
71304;DHT22;59091;47.446;19.148;2023-05-20T07:41:20;25.13;46.75
71304;DHT22;59091;47.446;19.148;2023-05-20T07:43:46;25.43;46.28
71304;DHT22;59091;47.446;19.148;2023-05-20T07:46:12;25.45;46.23
71304;DHT22;59091;47.446;19.148;2023-05-20T07:48:37;25.68;45.69
71304;DHT22;59091;47.446;19.148;2023-05-20T07:51:03;26.05;46.72
71304;DHT22;59091;47.446;19.148;2023-05-20T07:53:28;26.06;45.44
71304;DHT22;59091;47.446;19.148;2023-05-20T07:55:54;25.92;45.42
71304;DHT22;59091;47.446;19.148;2023-05-20T07:58:20;26.33;45.20
71304;DHT22;59091;47.446;19.148;2023-05-20T08:00:46;26.73;44.77
71304;DHT22;59091;47.446;19.148;2023-05-20T08:03:11;26.40;43.78
71304;DHT22;59091;47.446;19.148;2023-05-20T08:05:39;26.37;45.12
71304;DHT22;59091;47.446;19.148;2023-05-20T08:08:04;26.60;44.96
71304;DHT22;59091;47.446;19.148;2023-05-20T08:10:31;26.73;44.84
71304;DHT22;59091;47.446;19.148;2023-05-20T08:12:56;26.59;43.86
71304;DHT22;59091;47.446;19.148;2023-05-20T08:15:21;26.64;44.06
71304;DHT22;59091;47.446;19.148;2023-05-20T08:17:47;27.03;44.65
71304;DHT22;59091;47.446;19.148;2023-05-20T08:20:12;27.06;43.47
71304;DHT22;59091;47.446;19.148;2023-05-20T08:22:39;27.15;43.04
71304;DHT22;59091;47.446;19.148;2023-05-20T08:25:08;27.79;43.06
71304;DHT22;59091;47.446;19.148;2023-05-20T08:27:35;27.66;42.21
71304;DHT22;59091;47.446;19.148;2023-05-20T08:30:01;27.18;42.21
71304;DHT22;59091;47.446;19.148;2023-05-20T08:32:27;27.34;42.64
71304;DHT22;59091;47.446;19.148;2023-05-20T08:34:52;27.78;42.28
71304;DHT22;59091;47.446;19.148;2023-05-20T08:37:18;26.93;43.06
71304;DHT22;59091;47.446;19.148;2023-05-20T08:39:43;26.84;43.79
71304;DHT22;59091;47.446;19.148;2023-05-20T08:42:10;27.01;43.85
71304;DHT22;59091;47.446;19.148;2023-05-20T08:44:39;27.14;43.15
71304;DHT22;59091;47.446;19.148;2023-05-20T08:47:06;27.34;43.40
71304;DHT22;59091;47.446;19.148;2023-05-20T08:49:32;27.48;43.40
71304;DHT22;59091;47.446;19.148;2023-05-20T08:51:59;27.48;42.50
71304;DHT22;59091;47.446;19.148;2023-05-20T08:54:42;27.59;42.50
71304;DHT22;59091;47.446;19.148;2023-05-20T08:57:08;27.62;43.11
71304;DHT22;59091;47.446;19.148;2023-05-20T08:59:35;27.65;43.38
71304;DHT22;59091;47.446;19.148;2023-05-20T09:02:00;27.39;42.26
71304;DHT22;59091;47.446;19.148;2023-05-20T09:04:26;27.11;43.07
71304;DHT22;59091;47.446;19.148;2023-05-20T09:06:52;27.41;44.77
71304;DHT22;59091;47.446;19.148;2023-05-20T09:09:17;27.34;42.82
71304;DHT22;59091;47.446;19.148;2023-05-20T09:11:43;27.48;42.95
71304;DHT22;59091;47.446;19.148;2023-05-20T09:14:08;27.37;44.28
71304;DHT22;59091;47.446;19.148;2023-05-20T09:16:34;27.30;44.80
71304;DHT22;59091;47.446;19.148;2023-05-20T09:18:59;27.07;42.54
71304;DHT22;59091;47.446;19.148;2023-05-20T09:21:28;27.15;44.43
71304;DHT22;59091;47.446;19.148;2023-05-20T09:23:54;26.93;42.85
71304;DHT22;59091;47.446;19.148;2023-05-20T09:26:22;26.82;43.80
71304;DHT22;59091;47.446;19.148;2023-05-20T09:28:49;26.56;44.92
71304;DHT22;59091;47.446;19.148;2023-05-20T09:31:15;26.47;44.99
71304;DHT22;59091;47.446;19.148;2023-05-20T09:33:41;26.42;46.54
71304;DHT22;59091;47.446;19.148;2023-05-20T09:36:07;26.49;46.44
71304;DHT22;59091;47.446;19.148;2023-05-20T09:38:38;26.56;46.60
71304;DHT22;59091;47.446;19.148;2023-05-20T09:41:11;26.47;44.08
71304;DHT22;59091;47.446;19.148;2023-05-20T09:43:38;26.53;44.15
71304;DHT22;59091;47.446;19.148;2023-05-20T09:46:04;26.56;43.87
71304;DHT22;59091;47.446;19.148;2023-05-20T09:48:31;26.56;43.19
71304;DHT22;59091;47.446;19.148;2023-05-20T09:50:57;26.42;43.72
71304;DHT22;59091;47.446;19.148;2023-05-20T09:53:25;26.22;44.43
71304;DHT22;59091;47.446;19.148;2023-05-20T09:55:52;26.02;43.74
71304;DHT22;59091;47.446;19.148;2023-05-20T09:58:19;26.12;44.12
71304;DHT22;59091;47.446;19.148;2023-05-20T10:00:44;26.21;44.62
71304;DHT22;59091;47.446;19.148;2023-05-20T10:03:11;26.32;44.19
71304;DHT22;59091;47.446;19.148;2023-05-20T10:05:40;26.33;43.07
71304;DHT22;59091;47.446;19.148;2023-05-20T10:19:40;25.95;40.15
71304;DHT22;59091;47.446;19.148;2023-05-20T10:22:07;26.22;40.67
71304;DHT22;59091;47.446;19.148;2023-05-20T10:24:37;26.43;41.74
71304;DHT22;59091;47.446;19.148;2023-05-20T10:27:08;26.21;39.26
71304;DHT22;59091;47.446;19.148;2023-05-20T10:29:54;26.35;40.14
71304;DHT22;59091;47.446;19.148;2023-05-20T10:34:49;26.59;41.82
71304;DHT22;59091;47.446;19.148;2023-05-20T10:37:26;26.75;40.10
71304;DHT22;59091;47.446;19.148;2023-05-20T10:40:04;26.79;38.09
71304;DHT22;59091;47.446;19.148;2023-05-20T10:42:31;26.97;39.24
71304;DHT22;59091;47.446;19.148;2023-05-20T10:44:56;26.80;39.05
71304;DHT22;59091;47.446;19.148;2023-05-20T10:47:21;26.80;39.30
71304;DHT22;59091;47.446;19.148;2023-05-20T10:49:47;26.79;37.40
71304;DHT22;59091;47.446;19.148;2023-05-20T10:52:13;26.83;40.30
71304;DHT22;59091;47.446;19.148;2023-05-20T10:54:58;26.72;39.17
71304;DHT22;59091;47.446;19.148;2023-05-20T10:57:27;26.50;37.98
71304;DHT22;59091;47.446;19.148;2023-05-20T10:59:54;26.56;36.42
71304;DHT22;59091;47.446;19.148;2023-05-20T11:02:20;26.75;37.15
71304;DHT22;59091;47.446;19.148;2023-05-20T11:04:51;26.84;38.22
71304;DHT22;59091;47.446;19.148;2023-05-20T11:07:27;26.94;38.06
71304;DHT22;59091;47.446;19.148;2023-05-20T11:09:57;26.97;38.44
71304;DHT22;59091;47.446;19.148;2023-05-20T11:12:24;27.10;36.85
71304;DHT22;59091;47.446;19.148;2023-05-20T11:14:50;26.91;36.38
71304;DHT22;59091;47.446;19.148;2023-05-20T11:17:17;27.10;36.66
71304;DHT22;59091;47.446;19.148;2023-05-20T11:19:43;27.00;36.79
71304;DHT22;59091;47.446;19.148;2023-05-20T11:22:08;27.11;37.58
71304;DHT22;59091;47.446;19.148;2023-05-20T11:24:34;27.07;37.55
71304;DHT22;59091;47.446;19.148;2023-05-20T11:27:00;27.14;39.45
71304;DHT22;59091;47.446;19.148;2023-05-20T11:29:26;27.28;39.76
71304;DHT22;59091;47.446;19.148;2023-05-20T11:31:53;27.34;39.56
71304;DHT22;59091;47.446;19.148;2023-05-20T11:34:21;27.35;38.84
71304;DHT22;59091;47.446;19.148;2023-05-20T11:36:48;27.34;39.24
71304;DHT22;59091;47.446;19.148;2023-05-20T11:39:16;27.23;39.47
71304;DHT22;59091;47.446;19.148;2023-05-20T11:41:41;27.27;41.46
71304;DHT22;59091;47.446;19.148;2023-05-20T11:44:11;27.48;41.31
71304;DHT22;59091;47.446;19.148;2023-05-20T11:46:44;27.34;40.71
71304;DHT22;59091;47.446;19.148;2023-05-20T11:49:12;27.42;40.26
71304;DHT22;59091;47.446;19.148;2023-05-20T11:51:37;27.48;41.54
71304;DHT22;59091;47.446;19.148;2023-05-20T11:54:06;27.51;39.90
71304;DHT22;59091;47.446;19.148;2023-05-20T11:56:38;27.63;41.16
71304;DHT22;59091;47.446;19.148;2023-05-20T11:59:07;27.47;41.63
71304;DHT22;59091;47.446;19.148;2023-05-20T12:01:38;27.58;41.11
71304;DHT22;59091;47.446;19.148;2023-05-20T12:04:08;27.51;40.30
71304;DHT22;59091;47.446;19.148;2023-05-20T12:06:33;27.44;39.79
71304;DHT22;59091;47.446;19.148;2023-05-20T12:09:02;27.24;39.78
71304;DHT22;59091;47.446;19.148;2023-05-20T12:11:34;27.38;38.97
71304;DHT22;59091;47.446;19.148;2023-05-20T12:14:00;27.44;40.17
71304;DHT22;59091;47.446;19.148;2023-05-20T12:16:26;27.42;39.79
71304;DHT22;59091;47.446;19.148;2023-05-20T12:18:52;27.56;39.69
71304;DHT22;59091;47.446;19.148;2023-05-20T12:21:18;27.42;40.76
71304;DHT22;59091;47.446;19.148;2023-05-20T12:23:43;27.72;42.23
71304;DHT22;59091;47.446;19.148;2023-05-20T12:26:09;27.82;42.08
71304;DHT22;59091;47.446;19.148;2023-05-20T12:28:34;27.79;39.85
71304;DHT22;59091;47.446;19.148;2023-05-20T12:31:00;27.68;39.60
71304;DHT22;59091;47.446;19.148;2023-05-20T12:33:25;27.56;39.14
71304;DHT22;59091;47.446;19.148;2023-05-20T12:35:51;27.37;38.84
71304;DHT22;59091;47.446;19.148;2023-05-20T12:38:17;27.45;40.39
71304;DHT22;59091;47.446;19.148;2023-05-20T12:40:42;27.58;41.79
71304;DHT22;59091;47.446;19.148;2023-05-20T12:43:08;27.56;41.22
71304;DHT22;59091;47.446;19.148;2023-05-20T12:45:34;27.66;40.22
71304;DHT22;59091;47.446;19.148;2023-05-20T12:47:59;27.62;41.00
71304;DHT22;59091;47.446;19.148;2023-05-20T12:50:26;27.76;39.24
71304;DHT22;59091;47.446;19.148;2023-05-20T12:52:51;27.84;39.14
71304;DHT22;59091;47.446;19.148;2023-05-20T12:55:17;27.92;40.13
71304;DHT22;59091;47.446;19.148;2023-05-20T12:57:43;27.84;40.82
71304;DHT22;59091;47.446;19.148;2023-05-20T13:00:10;27.78;40.67
71304;DHT22;59091;47.446;19.148;2023-05-20T13:02:37;27.79;40.60
71304;DHT22;59091;47.446;19.148;2023-05-20T13:05:03;27.85;41.41
71304;DHT22;59091;47.446;19.148;2023-05-20T13:07:29;27.89;40.48
71304;DHT22;59091;47.446;19.148;2023-05-20T13:09:56;27.99;39.93
71304;DHT22;59091;47.446;19.148;2023-05-20T13:12:21;28.14;39.57
71304;DHT22;59091;47.446;19.148;2023-05-20T13:14:47;28.02;38.15
71304;DHT22;59091;47.446;19.148;2023-05-20T13:17:12;28.02;38.49
71304;DHT22;59091;47.446;19.148;2023-05-20T13:19:37;28.09;39.01
71304;DHT22;59091;47.446;19.148;2023-05-20T13:22:03;28.19;40.05
71304;DHT22;59091;47.446;19.148;2023-05-20T13:24:30;27.96;40.50
71304;DHT22;59091;47.446;19.148;2023-05-20T13:26:55;28.03;40.66
71304;DHT22;59091;47.446;19.148;2023-05-20T13:29:21;27.82;40.39
71304;DHT22;59091;47.446;19.148;2023-05-20T13:31:46;27.56;38.79
71304;DHT22;59091;47.446;19.148;2023-05-20T13:34:12;27.51;38.63
71304;DHT22;59091;47.446;19.148;2023-05-20T13:36:38;27.51;39.24
71304;DHT22;59091;47.446;19.148;2023-05-20T13:39:04;27.51;39.29
71304;DHT22;59091;47.446;19.148;2023-05-20T13:41:31;27.63;39.91
71304;DHT22;59091;47.446;19.148;2023-05-20T13:43:56;27.79;40.14
71304;DHT22;59091;47.446;19.148;2023-05-20T13:46:22;27.84;41.45
71304;DHT22;59091;47.446;19.148;2023-05-20T13:48:47;28.00;40.09
71304;DHT22;59091;47.446;19.148;2023-05-20T13:51:13;27.85;36.69
71304;DHT22;59091;47.446;19.148;2023-05-20T13:53:38;27.78;38.30
71304;DHT22;59091;47.446;19.148;2023-05-20T13:56:04;27.79;38.35
71304;DHT22;59091;47.446;19.148;2023-05-20T13:58:34;27.86;39.21
71304;DHT22;59091;47.446;19.148;2023-05-20T14:00:59;27.79;39.43
71304;DHT22;59091;47.446;19.148;2023-05-20T14:03:24;27.70;37.73
71304;DHT22;59091;47.446;19.148;2023-05-20T14:05:50;27.58;37.96
71304;DHT22;59091;47.446;19.148;2023-05-20T14:08:15;27.61;37.87
71304;DHT22;59091;47.446;19.148;2023-05-20T14:10:41;27.73;38.15
71304;DHT22;59091;47.446;19.148;2023-05-20T14:13:06;28.02;38.50
71304;DHT22;59091;47.446;19.148;2023-05-20T14:15:33;27.86;37.77
71304;DHT22;59091;47.446;19.148;2023-05-20T14:17:58;27.88;37.95
71304;DHT22;59091;47.446;19.148;2023-05-20T14:20:24;27.92;37.90
71304;DHT22;59091;47.446;19.148;2023-05-20T14:22:51;27.82;35.61
71304;DHT22;59091;47.446;19.148;2023-05-20T14:25:16;27.70;36.03
71304;DHT22;59091;47.446;19.148;2023-05-20T14:27:42;27.75;36.03
71304;DHT22;59091;47.446;19.148;2023-05-20T14:30:08;28.05;36.36
71304;DHT22;59091;47.446;19.148;2023-05-20T14:32:33;28.06;35.91
71304;DHT22;59091;47.446;19.148;2023-05-20T14:34:59;28.07;36.19
71304;DHT22;59091;47.446;19.148;2023-05-20T14:37:24;28.00;34.91
71304;DHT22;59091;47.446;19.148;2023-05-20T14:39:52;27.92;35.33
71304;DHT22;59091;47.446;19.148;2023-05-20T14:42:18;27.89;35.66
71304;DHT22;59091;47.446;19.148;2023-05-20T14:44:43;27.90;35.68
71304;DHT22;59091;47.446;19.148;2023-05-20T14:47:09;27.86;36.21
71304;DHT22;59091;47.446;19.148;2023-05-20T14:49:34;27.89;36.26
71304;DHT22;59091;47.446;19.148;2023-05-20T14:52:02;27.79;36.71
71304;DHT22;59091;47.446;19.148;2023-05-20T14:54:27;27.72;36.93
71304;DHT22;59091;47.446;19.148;2023-05-20T14:56:53;27.62;35.06
71304;DHT22;59091;47.446;19.148;2023-05-20T14:59:19;27.51;36.73
71304;DHT22;59091;47.446;19.148;2023-05-20T15:01:45;27.73;36.98
71304;DHT22;59091;47.446;19.148;2023-05-20T15:04:10;27.92;37.17
71304;DHT22;59091;47.446;19.148;2023-05-20T15:06:36;27.97;36.52
71304;DHT22;59091;47.446;19.148;2023-05-20T15:09:02;27.95;36.63
71304;DHT22;59091;47.446;19.148;2023-05-20T15:11:27;27.93;36.87
71304;DHT22;59091;47.446;19.148;2023-05-20T15:13:53;27.81;37.22
71304;DHT22;59091;47.446;19.148;2023-05-20T15:16:18;27.70;37.14
71304;DHT22;59091;47.446;19.148;2023-05-20T15:18:48;27.59;38.26
71304;DHT22;59091;47.446;19.148;2023-05-20T15:21:14;27.52;38.30
71304;DHT22;59091;47.446;19.148;2023-05-20T15:23:39;27.52;39.28